Time;durP1;ratioP1;P1;durP2;ratioP2;P2;SDS_P1;SDS_P2;PMS_P1;PMS_P2;Temp;Humidity;BMP_temperature;BMP_pressure;BME280_temperature;BME280_humidity;BME280_pressure;Samples;Min_cycle;Max_cycle;Signal;HPM_P1;HPM_P2
2023/06/18 00:02:02;;;;;;;8.77;7.27;;;;;;;18.14;60.68;97863.63;5056501;28;20205;-77
2023/06/18 00:04:29;;;;;;;8.50;7.60;;;;;;;18.18;59.50;97859.31;5054960;28;20669;-77
2023/06/18 00:06:56;;;;;;;8.37;7.60;;;;;;;18.15;59.63;97859.84;5055139;28;20225;-77
2023/06/18 00:09:23;;;;;;;11.20;7.70;;;;;;;18.14;59.72;97858.25;5054752;28;20205;-77
2023/06/18 00:11:50;;;;;;;8.80;7.37;;;;;;;18.07;60.16;97870.38;5054201;28;20210;-77
2023/06/18 00:14:19;;;;;;;9.73;7.30;;;;;;;18.02;60.08;97863.13;5053778;28;20634;-77
2023/06/18 00:16:46;;;;;;;9.60;7.27;;;;;;;17.96;60.75;97861.50;5054663;28;20607;-77
2023/06/18 00:19:12;;;;;;;7.80;6.97;;;;;;;17.94;63.06;97862.84;5055234;28;20212;-77
2023/06/18 00:21:38;;;;;;;8.13;7.33;;;;;;;17.94;61.42;97862.84;5054176;28;20661;-77
2023/06/18 00:24:05;;;;;;;9.17;7.53;;;;;;;17.90;62.64;97856.41;5054600;28;20217;-77
2023/06/18 00:26:31;;;;;;;8.50;7.70;;;;;;;17.80;63.12;97862.59;5054381;28;20229;-77
2023/06/18 00:28:58;;;;;;;8.80;7.90;;;;;;;17.86;62.76;97856.13;5054501;28;20216;-77
2023/06/18 00:31:25;;;;;;;8.20;7.40;;;;;;;17.82;63.61;97849.69;5053371;28;20209;-77
2023/06/18 00:33:52;;;;;;;8.80;7.37;;;;;;;17.88;61.92;97854.00;5054380;28;20734;-77
2023/06/18 00:36:19;;;;;;;7.87;7.13;;;;;;;17.87;63.99;97860.44;5054626;28;20225;-77
2023/06/18 00:38:46;;;;;;;8.97;7.93;;;;;;;17.82;62.09;97855.06;5054465;28;20224;-77
2023/06/18 00:41:13;;;;;;;8.90;7.70;;;;;;;17.84;62.75;97857.47;5054401;28;20372;-77
2023/06/18 00:43:40;;;;;;;9.07;8.00;;;;;;;17.78;62.27;97851.28;5072186;28;20201;-77
2023/06/18 00:46:07;;;;;;;8.53;7.47;;;;;;;17.74;62.96;97852.13;5074122;28;20726;-77
2023/06/18 00:48:35;;;;;;;10.30;7.50;;;;;;;17.76;64.50;97853.47;5075119;28;20208;-77
2023/06/18 00:51:03;;;;;;;8.03;7.23;;;;;;;17.69;63.58;97846.75;5073554;28;20603;-77
2023/06/18 00:53:30;;;;;;;8.60;7.27;;;;;;;17.71;64.11;97844.56;5074232;28;20226;-77
2023/06/18 00:55:57;;;;;;;8.17;7.20;;;;;;;17.56;64.00;97845.38;5074170;28;20231;-77
2023/06/18 00:58:25;;;;;;;9.63;7.60;;;;;;;17.58;64.13;97848.63;5074486;28;20205;-77
2023/06/18 01:00:51;;;;;;;7.90;7.07;;;;;;;17.63;63.94;97845.91;5073267;28;20213;-77
2023/06/18 01:03:20;;;;;;;8.13;7.33;;;;;;;17.61;64.08;97837.34;5072015;28;20209;-77
2023/06/18 01:05:57;;;;;;;8.47;7.60;;;;;;;17.58;64.07;97843.25;5059618;28;20619;-77
2023/06/18 01:08:25;;;;;;;8.00;7.10;;;;;;;17.53;64.43;97839.72;5053726;28;20213;-77
2023/06/18 01:11:10;;;;;;;8.23;7.43;;;;;;;17.49;63.98;97842.16;5054038;28;20212;-77
2023/06/18 01:13:41;;;;;;;10.80;7.60;;;;;;;17.46;64.34;97850.75;5053968;28;20565;-77
2023/06/18 01:16:09;;;;;;;8.60;7.63;;;;;;;17.41;65.00;97842.69;5068451;28;20229;-77
2023/06/18 01:18:56;;;;;;;7.70;6.90;;;;;;;17.38;64.94;97847.75;5073599;28;20664;-77
2023/06/18 01:21:29;;;;;;;8.40;7.60;;;;;;;17.32;65.99;97841.56;5074099;28;20195;-77
2023/06/18 01:24:18;;;;;;;11.03;7.27;;;;;;;17.26;65.59;97839.13;5073581;28;20216;-77
2023/06/18 01:26:45;;;;;;;7.47;6.87;;;;;;;17.22;66.02;97838.03;5072220;28;20229;-77
2023/06/18 01:29:14;;;;;;;8.23;7.40;;;;;;;17.16;65.84;97842.63;5073732;28;20208;-77
2023/06/18 01:31:44;;;;;;;8.70;7.90;;;;;;;17.22;65.38;97838.88;5073705;28;20627;-77
2023/06/18 01:34:12;;;;;;;10.30;8.10;;;;;;;17.19;66.02;97838.59;5073633;28;20255;-77
2023/06/18 01:36:39;;;;;;;8.57;7.63;;;;;;;17.19;66.17;97838.59;5073619;28;20256;-77
2023/06/18 01:39:19;;;;;;;7.67;6.87;;;;;;;17.17;65.94;97832.66;5072270;28;20216;-77
2023/06/18 01:41:47;;;;;;;8.70;7.70;;;;;;;17.10;66.49;97840.19;5066107;28;20208;-77
2023/06/18 01:44:19;;;;;;;7.93;6.77;;;;;;;17.03;67.54;97839.63;5054079;28;20201;-77
2023/06/18 01:46:47;;;;;;;10.90;7.43;;;;;;;16.99;66.87;97841.22;5056741;28;20229;-77
2023/06/18 01:49:17;;;;;;;7.87;7.13;;;;;;;16.93;67.43;97840.41;5066761;28;20201;-77
2023/06/18 01:51:45;;;;;;;8.97;7.17;;;;;;;16.93;67.42;97840.41;5062761;28;20659;-77
2023/06/18 01:54:11;;;;;;;8.03;7.23;;;;;;;16.88;67.99;97837.69;5067752;28;20327;-77
2023/06/18 01:56:38;;;;;;;8.83;7.17;;;;;;;16.93;67.50;97837.72;5072583;28;20231;-77
2023/06/18 01:59:04;;;;;;;8.50;7.70;;;;;;;16.94;67.69;97835.84;5073415;28;20204;-77
2023/06/18 02:01:34;;;;;;;7.87;7.07;;;;;;;16.86;68.47;97833.66;5071872;28;20590;-77
2023/06/18 02:04:01;;;;;;;8.23;7.27;;;;;;;16.81;68.03;97830.97;5073392;28;20258;-77
2023/06/18 02:06:27;;;;;;;8.40;7.47;;;;;;;16.76;67.79;97825.56;5073277;28;20234;-77
2023/06/18 02:08:54;;;;;;;10.97;7.77;;;;;;;16.83;67.96;97832.31;5073400;28;20219;-77
2023/06/18 02:11:20;;;;;;;10.13;7.30;;;;;;;16.81;67.86;97837.16;5072071;28;20713;-77
2023/06/18 02:13:47;;;;;;;7.80;7.00;;;;;;;16.73;68.11;97843.03;5075234;28;20216;-77
2023/06/18 02:16:13;;;;;;;8.80;6.80;;;;;;;16.71;68.08;97847.84;5077569;28;20225;-77
2023/06/18 02:18:40;;;;;;;8.13;7.30;;;;;;;16.63;68.29;97847.53;5076958;28;20209;-77
2023/06/18 02:21:07;;;;;;;8.50;7.50;;;;;;;16.58;68.96;97842.97;5077228;28;20631;-77
2023/06/18 02:23:34;;;;;;;8.03;7.13;;;;;;;16.58;70.15;97840.28;5076947;28;20219;-77
2023/06/18 02:26:01;;;;;;;8.33;7.17;;;;;;;16.51;69.30;97845.06;5076707;28;20602;-77
2023/06/18 02:28:27;;;;;;;10.10;7.70;;;;;;;16.50;69.52;97840.78;5076971;28;20254;-77
2023/06/18 02:30:55;;;;;;;10.17;7.40;;;;;;;16.50;69.85;97846.16;5077054;28;20208;-77
2023/06/18 02:33:22;;;;;;;8.47;7.63;;;;;;;16.40;71.18;97839.91;5076933;28;20208;-77
2023/06/18 02:35:49;;;;;;;11.47;7.63;;;;;;;16.35;71.54;97847.91;5076894;28;20307;-77
2023/06/18 02:38:15;;;;;;;8.70;7.30;;;;;;;16.38;71.43;97853.56;5076897;28;20204;-77
2023/06/18 02:40:42;;;;;;;7.77;7.07;;;;;;;16.42;71.09;97849.31;5076605;28;20208;-77
2023/06/18 02:43:08;;;;;;;8.67;7.23;;;;;;;16.40;71.10;97847.97;5076498;28;20220;-77
2023/06/18 02:45:35;;;;;;;7.63;6.93;;;;;;;16.41;69.29;97842.34;5076681;28;20200;-77
2023/06/18 02:48:01;;;;;;;8.40;7.60;;;;;;;16.40;69.19;97832.69;5076609;28;20215;-77
2023/06/18 02:50:28;;;;;;;10.33;8.03;;;;;;;16.39;70.06;97833.72;5076605;28;20212;-77
2023/06/18 02:52:55;;;;;;;7.90;7.10;;;;;;;16.39;69.48;97832.91;5076605;28;20283;-77
2023/06/18 02:55:22;;;;;;;7.60;6.80;;;;;;;16.38;69.46;97840.13;5076170;28;20417;-77
2023/06/18 02:57:48;;;;;;;8.33;7.53;;;;;;;16.38;69.35;97834.78;5076496;28;20209;-77
2023/06/18 03:00:15;;;;;;;8.73;7.87;;;;;;;16.38;69.22;97834.78;5076532;28;20211;-77
2023/06/18 03:02:43;;;;;;;8.40;7.60;;;;;;;16.37;70.53;97841.22;5076683;28;20216;-77
2023/06/18 03:05:10;;;;;;;9.83;7.03;;;;;;;16.27;70.64;97845.72;5076372;28;20203;-77
2023/06/18 03:07:37;;;;;;;7.97;7.10;;;;;;;16.21;70.98;97844.91;5076415;28;20228;-77
2023/06/18 03:10:03;;;;;;;8.03;7.23;;;;;;;16.17;70.76;97841.13;5076198;28;20346;-77
2023/06/18 03:12:30;;;;;;;8.10;7.10;;;;;;;16.17;71.59;97846.47;5075652;28;20239;-77
2023/06/18 03:14:56;;;;;;;9.10;7.20;;;;;;;16.19;71.52;97854.28;5075545;28;20224;-77
2023/06/18 03:17:22;;;;;;;7.83;7.13;;;;;;;16.16;71.67;97852.09;5075677;28;20232;-77
2023/06/18 03:19:49;;;;;;;9.70;7.10;;;;;;;16.15;71.13;97843.22;5075997;28;20209;-77
2023/06/18 03:22:16;;;;;;;7.90;7.10;;;;;;;16.17;71.65;97843.78;5076032;28;20201;-77
2023/06/18 03:24:42;;;;;;;9.17;7.00;;;;;;;16.15;71.67;97859.31;5074393;28;20212;-77
2023/06/18 03:27:08;;;;;;;8.20;7.40;;;;;;;16.09;70.35;97855.00;5075815;28;20220;-77
2023/06/18 03:29:35;;;;;;;8.57;7.27;;;;;;;16.07;71.36;97846.41;5075909;28;20208;-77
2023/06/18 03:32:02;;;;;;;7.70;7.00;;;;;;;16.03;71.44;97853.38;5075528;28;20668;-77
2023/06/18 03:34:31;;;;;;;8.50;7.70;;;;;;;15.98;71.47;97863.25;5075724;28;20221;-77
2023/06/18 03:37:00;;;;;;;8.60;7.73;;;;;;;15.99;71.99;97856.81;5075512;28;20221;-77
2023/06/18 03:39:26;;;;;;;7.97;7.03;;;;;;;16.02;71.60;97861.66;5075122;28;20209;-77
2023/06/18 03:41:53;;;;;;;8.47;7.60;;;;;;;15.92;72.78;97859.69;5075815;28;20207;-77
2023/06/18 03:44:19;;;;;;;7.80;7.10;;;;;;;15.92;73.27;97856.22;5075385;28;20200;-77
2023/06/18 03:46:46;;;;;;;7.70;7.00;;;;;;;15.97;72.79;97859.72;5075129;28;20271;-77
2023/06/18 03:49:12;;;;;;;8.67;7.80;;;;;;;15.98;72.62;97868.59;5074527;28;20236;-77
2023/06/18 03:51:38;;;;;;;8.90;7.17;;;;;;;16.00;73.31;97863.78;5074976;28;20209;-77
2023/06/18 03:54:05;;;;;;;8.60;6.83;;;;;;;16.01;73.19;97858.16;5075038;28;20229;-77
2023/06/18 03:56:31;;;;;;;8.20;6.80;;;;;;;16.09;73.15;97856.88;5075654;28;20231;-77
2023/06/18 03:58:58;;;;;;;8.00;7.23;;;;;;;16.13;72.18;97856.09;5075395;28;20201;-77
2023/06/18 04:01:26;;;;;;;9.97;7.00;;;;;;;16.19;71.90;97856.94;5075419;28;20200;-77
2023/06/18 04:03:53;;;;;;;8.33;7.53;;;;;;;16.15;71.59;97856.63;5075178;28;20204;-77
2023/06/18 04:06:19;;;;;;;7.90;7.20;;;;;;;16.22;72.32;97859.09;5075312;28;20228;-77
2023/06/18 04:08:45;;;;;;;7.80;7.10;;;;;;;16.27;71.76;97865.31;5074974;28;20208;-77
2023/06/18 04:11:12;;;;;;;9.10;7.80;;;;;;;16.32;72.02;97859.97;5075015;28;20214;-77
2023/06/18 04:13:38;;;;;;;8.20;7.33;;;;;;;16.30;73.02;97863.97;5074861;28;20300;-77
2023/06/18 04:16:05;;;;;;;7.53;6.83;;;;;;;16.33;72.77;97866.94;5075083;28;20221;-77
2023/06/18 04:18:31;;;;;;;8.33;7.50;;;;;;;16.38;71.63;97856.22;5074619;28;20237;-77
2023/06/18 04:20:57;;;;;;;7.90;7.10;;;;;;;16.38;72.32;97858.91;5075170;28;20209;-77
2023/06/18 04:23:24;;;;;;;7.83;7.03;;;;;;;16.41;72.39;97869.16;5075370;28;20216;-77
2023/06/18 04:25:50;;;;;;;8.30;7.60;;;;;;;16.49;71.75;97867.88;5074779;28;20311;-77
2023/06/18 04:28:16;;;;;;;9.10;7.47;;;;;;;16.53;70.53;97863.59;5074872;28;20209;-77
2023/06/18 04:30:43;;;;;;;8.63;7.20;;;;;;;16.60;70.59;97859.59;5074736;28;20204;-77
2023/06/18 04:33:09;;;;;;;8.73;7.40;;;;;;;16.67;70.34;97854.81;5074949;28;20208;-77
2023/06/18 04:35:35;;;;;;;8.83;7.93;;;;;;;16.72;70.31;97860.19;5074130;28;20229;-77
2023/06/18 04:38:02;;;;;;;9.93;7.90;;;;;;;16.77;70.23;97860.22;5074597;28;20212;-77
2023/06/18 04:40:28;;;;;;;9.23;7.10;;;;;;;16.80;70.12;97862.38;5074546;28;20211;-77
2023/06/18 04:42:54;;;;;;;8.07;7.30;;;;;;;16.86;69.40;97864.00;5074709;28;20210;-77
2023/06/18 04:45:21;;;;;;;8.40;7.53;;;;;;;16.91;69.26;97853.28;5074308;28;20204;-77
2023/06/18 04:47:47;;;;;;;7.90;7.17;;;;;;;16.94;68.40;97847.41;5074370;28;20211;-77
2023/06/18 04:50:14;;;;;;;8.00;7.30;;;;;;;16.96;68.61;97845.25;5074039;28;20579;-77
2023/06/18 04:52:41;;;;;;;8.40;7.47;;;;;;;16.98;68.51;97850.34;5074214;28;20680;-77
2023/06/18 04:55:07;;;;;;;9.53;7.00;;;;;;;17.06;68.77;97850.63;5074219;28;20239;-77
2023/06/18 04:57:35;;;;;;;8.27;7.40;;;;;;;17.07;68.02;97846.09;5073824;28;20228;-77
2023/06/18 05:00:04;;;;;;;10.33;7.73;;;;;;;17.12;67.34;97849.59;5074165;28;20614;-75
2023/06/18 05:02:30;;;;;;;7.77;7.10;;;;;;;17.14;68.43;97852.03;5073828;28;20212;-75
2023/06/18 05:04:57;;;;;;;9.70;7.70;;;;;;;17.04;67.37;97852.78;5073969;28;20196;-76
2023/06/18 05:07:23;;;;;;;8.03;7.23;;;;;;;17.21;67.09;97853.38;5074181;28;20706;-77
2023/06/18 05:09:50;;;;;;;8.97;7.83;;;;;;;17.34;66.94;97857.41;5074372;28;20223;-78
2023/06/18 05:12:16;;;;;;;8.50;7.70;;;;;;;17.52;65.79;97848.88;5074019;28;20220;-77
2023/06/18 05:14:42;;;;;;;8.80;7.43;;;;;;;17.44;66.49;97852.09;5073941;28;20243;-77
2023/06/18 05:17:09;;;;;;;8.40;7.60;;;;;;;17.53;66.52;97850.47;5071873;28;20711;-75
2023/06/18 05:19:35;;;;;;;7.87;7.07;;;;;;;17.58;65.53;97848.63;5071600;28;20548;-75
2023/06/18 05:22:02;;;;;;;7.90;7.10;;;;;;;17.77;64.88;97849.69;5072671;28;20226;-75
2023/06/18 05:24:28;;;;;;;8.47;7.67;;;;;;;17.93;63.67;97850.50;5072418;28;20212;-75
2023/06/18 05:26:54;;;;;;;10.50;7.60;;;;;;;18.11;63.50;97850.75;5072481;28;20231;-75
2023/06/18 05:29:21;;;;;;;8.23;7.37;;;;;;;18.33;61.88;97845.88;5072213;28;20200;-75
2023/06/18 05:31:47;;;;;;;8.83;8.03;;;;;;;18.27;62.40;97849.63;5073306;28;20690;-75
2023/06/18 05:34:13;;;;;;;7.93;7.00;;;;;;;18.18;63.12;97856.63;5073765;28;20274;-75
2023/06/18 05:36:40;;;;;;;8.83;7.93;;;;;;;18.09;63.48;97857.47;5073484;28;20231;-75
2023/06/18 05:39:06;;;;;;;8.60;7.77;;;;;;;17.99;64.73;97858.28;5073769;28;20200;-75
2023/06/18 05:41:32;;;;;;;9.00;7.50;;;;;;;17.97;64.03;97856.94;5073394;28;20212;-75
2023/06/18 05:43:59;;;;;;;7.83;7.13;;;;;;;18.01;64.14;97864.19;5073518;28;20212;-75
2023/06/18 05:46:25;;;;;;;8.40;7.60;;;;;;;17.84;64.78;97860.19;5072711;28;20235;-75
2023/06/18 05:48:53;;;;;;;8.87;7.97;;;;;;;17.85;65.38;97865.28;5072025;28;20215;-75
2023/06/18 05:51:19;;;;;;;8.57;7.70;;;;;;;18.02;65.17;97865.81;5072874;28;20205;-75
2023/06/18 05:53:46;;;;;;;9.10;7.10;;;;;;;18.19;65.26;97868.22;5073149;28;20729;-75
2023/06/18 05:56:12;;;;;;;8.40;7.70;;;;;;;18.17;64.63;97868.47;5073032;28;20229;-75
2023/06/18 05:58:38;;;;;;;10.10;8.33;;;;;;;18.24;63.93;97865.50;5073143;28;20572;-75
2023/06/18 06:01:05;;;;;;;8.23;7.50;;;;;;;18.22;63.94;97865.78;5073719;28;20211;-75
2023/06/18 06:03:31;;;;;;;8.63;7.53;;;;;;;18.31;63.81;97868.72;5073318;28;20215;-75
2023/06/18 06:05:57;;;;;;;8.80;7.93;;;;;;;18.49;63.99;97866.28;5073142;28;20227;-75
2023/06/18 06:08:24;;;;;;;9.27;7.47;;;;;;;18.69;62.92;97871.59;5072944;28;20671;-75
2023/06/18 06:10:51;;;;;;;8.97;7.87;;;;;;;18.72;63.29;97864.84;5072937;28;20208;-75
2023/06/18 06:13:18;;;;;;;8.93;8.03;;;;;;;18.82;62.53;97867.53;5073244;28;20204;-75
2023/06/18 06:15:44;;;;;;;8.23;7.53;;;;;;;18.81;62.36;97863.19;5072770;28;20236;-75
2023/06/18 06:18:10;;;;;;;8.77;7.87;;;;;;;18.94;62.62;97868.00;5073152;28;20211;-75
2023/06/18 06:20:37;;;;;;;8.43;7.63;;;;;;;19.03;62.44;97860.94;5073392;28;20200;-75
2023/06/18 06:23:03;;;;;;;9.77;8.20;;;;;;;19.12;62.04;97872.75;5073488;28;20220;-75
2023/06/18 06:25:29;;;;;;;8.53;7.67;;;;;;;19.24;61.56;97857.09;5073196;28;20185;-75
2023/06/18 06:27:56;;;;;;;8.33;7.57;;;;;;;19.23;61.43;97864.38;5073432;28;20564;-75
2023/06/18 06:30:22;;;;;;;8.43;7.70;;;;;;;19.37;59.79;97865.34;5073011;28;20660;-75
2023/06/18 06:32:48;;;;;;;8.00;7.30;;;;;;;19.50;59.95;97864.75;5072816;28;20291;-75
2023/06/18 06:35:15;;;;;;;10.20;8.17;;;;;;;19.64;59.43;97862.22;5072950;28;20225;-75
2023/06/18 06:37:42;;;;;;;8.30;7.50;;;;;;;19.81;58.90;97861.81;5072888;28;20225;-75
2023/06/18 06:40:09;;;;;;;9.10;8.20;;;;;;;19.63;59.19;97859.81;5072797;28;20211;-75
2023/06/18 06:42:36;;;;;;;8.07;7.37;;;;;;;19.67;59.73;97860.84;5072751;28;20204;-75
2023/06/18 06:45:03;;;;;;;8.70;7.13;;;;;;;19.65;60.16;97855.75;5073278;28;20204;-75
2023/06/18 06:47:29;;;;;;;8.17;7.37;;;;;;;19.79;60.20;97867.50;5072637;28;20597;-75
2023/06/18 06:49:56;;;;;;;11.20;8.87;;;;;;;19.94;60.41;97863.88;5072875;28;20215;-75
2023/06/18 06:52:22;;;;;;;8.67;7.87;;;;;;;19.92;59.07;97872.25;5072508;28;20813;-75
2023/06/18 06:54:50;;;;;;;8.63;7.17;;;;;;;20.00;58.49;97868.13;5072506;28;20228;-75
2023/06/18 06:57:17;;;;;;;9.10;7.67;;;;;;;20.07;58.33;97864.00;5072317;28;20747;-75
2023/06/18 06:59:43;;;;;;;8.40;7.63;;;;;;;20.44;57.58;97868.81;5074907;28;20204;-75
2023/06/18 07:02:10;;;;;;;7.83;7.20;;;;;;;20.40;58.07;97867.78;5076218;28;20204;-75
2023/06/18 07:04:36;;;;;;;8.60;7.50;;;;;;;20.44;57.28;97863.44;5076232;28;20201;-75
2023/06/18 07:07:02;;;;;;;7.87;6.97;;;;;;;20.54;56.96;97866.81;5076149;28;20224;-75
2023/06/18 07:09:29;;;;;;;7.73;7.03;;;;;;;20.55;56.49;97867.63;5076400;28;20215;-75
2023/06/18 07:11:55;;;;;;;7.50;6.80;;;;;;;20.66;56.60;97874.53;5076110;28;20204;-75
2023/06/18 07:14:22;;;;;;;8.67;7.13;;;;;;;20.78;55.02;97862.22;5076140;28;20215;-75
2023/06/18 07:16:48;;;;;;;7.50;6.90;;;;;;;20.91;54.79;97863.44;5076129;28;20607;-75
2023/06/18 07:19:15;;;;;;;8.57;7.47;;;;;;;21.05;55.14;97869.75;5076290;28;20212;-75
2023/06/18 07:21:41;;;;;;;6.80;6.27;;;;;;;21.12;55.18;97872.91;5076333;28;20257;-75
2023/06/18 07:24:07;;;;;;;7.77;7.07;;;;;;;21.20;52.97;97864.16;5075665;28;20216;-75
2023/06/18 07:26:34;;;;;;;7.30;6.70;;;;;;;21.39;53.99;97867.66;5076448;28;20221;-77
2023/06/18 07:29:00;;;;;;;7.77;7.00;;;;;;;21.62;54.06;97872.19;5076020;28;20207;-77
2023/06/18 07:31:26;;;;;;;6.93;6.23;;;;;;;21.68;53.33;97871.00;5076001;28;20212;-77
2023/06/18 07:33:53;;;;;;;7.13;6.43;;;;;;;21.83;51.08;97866.19;5076048;28;20208;-77
2023/06/18 07:36:19;;;;;;;7.88;7.15;;;;;;;21.97;52.19;97863.53;5075697;28;20239;-77
2023/06/18 07:38:48;;;;;;;6.90;6.30;;;;;;;22.08;51.23;97865.78;5075679;28;20210;-77
2023/06/18 07:41:14;;;;;;;7.03;6.32;;;;;;;22.37;50.13;97865.53;5075643;28;20258;-77
2023/06/18 07:43:40;;;;;;;7.60;6.18;;;;;;;22.38;49.88;97867.94;5075897;28;20299;-77
2023/06/18 07:46:07;;;;;;;7.20;6.50;;;;;;;22.59;49.78;97860.25;5075733;28;20224;-77
2023/06/18 07:48:34;;;;;;;7.60;6.65;;;;;;;22.81;48.90;97855.75;5075494;28;20205;-77
2023/06/18 07:51:00;;;;;;;7.50;6.78;;;;;;;22.90;50.28;97855.84;5075495;28;20201;-77
2023/06/18 07:53:27;;;;;;;8.52;6.20;;;;;;;22.83;48.72;97864.38;5075480;28;20209;-77
2023/06/18 07:55:53;;;;;;;7.47;6.78;;;;;;;23.06;47.68;97857.94;5075147;28;20232;-77
2023/06/18 07:58:20;;;;;;;7.78;6.90;;;;;;;23.03;47.75;97858.56;5075086;28;20205;-77
2023/06/18 08:00:46;;;;;;;7.50;6.85;;;;;;;22.91;48.18;97857.44;5074826;28;20274;-77
2023/06/18 08:03:13;;;;;;;7.10;6.50;;;;;;;22.92;48.63;97859.06;5075044;28;20216;-77
2023/06/18 08:05:39;;;;;;;7.00;6.30;;;;;;;23.29;46.57;97856.13;5074961;28;20220;-77
2023/06/18 08:08:05;;;;;;;6.93;6.32;;;;;;;23.39;46.58;97851.28;5075345;28;20208;-77
2023/06/18 08:10:32;;;;;;;7.88;6.45;;;;;;;23.63;44.94;97856.41;5074288;28;20200;-77
2023/06/18 08:12:58;;;;;;;7.85;6.63;;;;;;;23.64;44.52;97858.81;5074761;28;20211;-78
2023/06/18 08:15:24;;;;;;;6.38;5.78;;;;;;;23.68;44.65;97850.88;5074596;28;20227;-77
2023/06/18 08:17:51;;;;;;;6.40;5.78;;;;;;;23.97;44.78;97849.34;5075102;28;20215;-77
2023/06/18 08:20:17;;;;;;;6.78;5.55;;;;;;;24.05;45.01;97851.31;5074858;28;20210;-77
2023/06/18 08:22:43;;;;;;;7.30;6.57;;;;;;;24.24;43.77;97849.19;5074975;28;20205;-77
2023/06/18 08:25:10;;;;;;;8.35;6.68;;;;;;;24.36;43.41;97851.34;5075129;28;20195;-77
2023/06/18 08:27:36;;;;;;;6.43;5.57;;;;;;;24.51;41.76;97850.94;5074565;28;20316;-77
2023/06/18 08:30:04;;;;;;;7.47;6.05;;;;;;;24.67;42.45;97846.72;5074637;28;20200;-77
2023/06/18 08:32:30;;;;;;;6.53;5.88;;;;;;;24.72;41.78;97850.09;5074650;28;20212;-77
2023/06/18 08:34:57;;;;;;;6.15;5.57;;;;;;;25.00;42.08;97842.50;5074478;28;20204;-77
2023/06/18 08:37:23;;;;;;;6.70;5.82;;;;;;;24.94;40.24;97838.31;5073978;28;20235;-77
2023/06/18 08:39:50;;;;;;;7.20;5.95;;;;;;;24.78;39.74;97843.41;5074212;28;20215;-77
2023/06/18 08:42:20;;;;;;;6.93;6.30;;;;;;;25.09;39.43;97835.97;5074407;28;20262;-77
2023/06/18 08:44:48;;;;;;;6.72;5.50;;;;;;;25.17;38.52;97839.81;5074483;28;20199;-77
2023/06/18 08:47:16;;;;;;;5.65;5.22;;;;;;;25.39;36.56;97834.28;5073845;28;20591;-77
2023/06/18 08:49:43;;;;;;;5.00;4.50;;;;;;;25.36;35.39;97837.63;5073966;28;20212;-77
2023/06/18 08:52:11;;;;;;;5.90;5.40;;;;;;;25.38;34.91;97833.47;5074297;28;20201;-77
2023/06/18 08:54:38;;;;;;;5.72;5.18;;;;;;;25.62;33.68;97841.97;5074164;28;20231;-77
2023/06/18 08:57:20;;;;;;;6.40;4.88;;;;;;;25.67;33.95;97832.84;5074004;28;20224;-75
2023/06/18 08:59:48;;;;;;;5.53;4.90;;;;;;;25.71;31.86;97836.50;5074223;28;20189;-77
2023/06/18 09:02:18;;;;;;;5.85;5.07;;;;;;;25.73;32.87;97831.56;5073580;28;20576;-77
2023/06/18 09:04:45;;;;;;;5.28;4.78;;;;;;;26.19;32.10;97834.41;5073917;28;20212;-77
2023/06/18 09:07:12;;;;;;;5.40;5.00;;;;;;;26.33;31.51;97827.59;5073890;28;20274;-77
2023/06/18 09:09:38;;;;;;;5.25;4.75;;;;;;;26.36;30.87;97832.41;5073883;28;20249;-77
2023/06/18 09:12:06;;;;;;;5.47;5.05;;;;;;;26.36;31.35;97829.69;5074006;28;20205;-77
2023/06/18 09:14:32;;;;;;;6.13;5.28;;;;;;;26.32;30.48;97836.13;5073972;28;20259;-77
2023/06/18 09:16:59;;;;;;;5.07;4.68;;;;;;;26.16;30.76;97832.31;5073442;28;20695;-77
2023/06/18 09:19:25;;;;;;;5.75;5.25;;;;;;;26.45;31.33;97825.00;5074211;28;20230;-77
2023/06/18 09:21:52;;;;;;;5.65;5.15;;;;;;;26.72;31.51;97830.06;5073857;28;20204;-77
2023/06/18 09:24:21;;;;;;;5.80;5.30;;;;;;;26.61;31.35;97834.28;5072886;28;20219;-77
2023/06/18 09:26:52;;;;;;;6.10;5.55;;;;;;;26.76;31.38;97828.28;5073435;28;20228;-77
2023/06/18 09:29:18;;;;;;;5.55;5.00;;;;;;;27.07;30.22;97822.47;5073378;28;20199;-77
2023/06/18 09:31:45;;;;;;;6.38;5.25;;;;;;;27.28;29.31;97820.63;5073850;28;20209;-77
2023/06/18 09:34:17;;;;;;;5.70;5.13;;;;;;;27.42;27.72;97823.06;5073444;28;20204;-77
2023/06/18 09:36:46;;;;;;;4.95;4.55;;;;;;;27.36;29.71;97814.31;5073480;28;20240;-77
2023/06/18 09:39:16;;;;;;;5.80;5.20;;;;;;;27.20;29.04;97820.66;5073812;28;20200;-77
2023/06/18 09:41:44;;;;;;;7.07;5.28;;;;;;;27.14;29.12;97820.03;5073320;28;20216;-77
2023/06/18 09:44:12;;;;;;;5.65;5.15;;;;;;;26.93;29.37;97808.28;5073376;28;20201;-77
2023/06/18 09:46:38;;;;;;;5.28;4.85;;;;;;;27.08;29.23;97808.50;5073424;28;20227;-77
2023/06/18 09:49:05;;;;;;;5.15;4.68;;;;;;;27.25;27.86;97812.28;5073621;28;20204;-78
2023/06/18 09:51:38;;;;;;;5.57;5.07;;;;;;;27.39;28.96;97808.16;5073730;28;20200;-77
2023/06/18 09:54:05;;;;;;;5.32;4.88;;;;;;;27.37;27.13;97813.16;5073578;28;20193;-77
2023/06/18 09:56:32;;;;;;;5.95;5.43;;;;;;;27.57;26.61;97812.34;5073221;28;20323;-76
2023/06/18 09:58:58;;;;;;;5.40;4.88;;;;;;;27.63;27.38;97802.81;5073438;28;20204;-77
2023/06/18 10:01:27;;;;;;;5.30;4.80;;;;;;;27.84;28.01;97803.63;5072882;28;20609;-77
2023/06/18 10:03:53;;;;;;;5.53;5.03;;;;;;;28.01;27.36;97803.44;5066779;28;20211;-77
2023/06/18 10:06:22;;;;;;;5.13;4.60;;;;;;;27.90;26.58;97807.72;5062682;28;20220;-77
2023/06/18 10:08:50;;;;;;;4.93;4.45;;;;;;;27.95;27.19;97804.81;5060182;28;20201;-77
2023/06/18 10:11:18;;;;;;;5.28;4.80;;;;;;;28.23;26.35;97800.31;5062971;28;20197;-77
2023/06/18 10:13:55;;;;;;;6.03;5.15;;;;;;;28.02;26.94;97799.59;5061280;28;20205;-77
2023/06/18 10:16:23;;;;;;;5.90;4.72;;;;;;;28.04;27.46;97794.59;5060900;28;20225;-77
2023/06/18 10:18:58;;;;;;;5.28;4.88;;;;;;;27.52;26.91;97796.16;5061679;28;20193;-77
2023/06/18 10:21:25;;;;;;;5.82;4.93;;;;;;;27.80;27.87;97797.22;5061131;28;20208;-77
2023/06/18 10:23:56;;;;;;;5.10;4.70;;;;;;;28.17;28.08;97793.47;5061138;28;20212;-77
2023/06/18 10:26:23;;;;;;;5.93;4.70;;;;;;;28.24;26.69;97793.72;5060833;28;20213;-77
2023/06/18 10:28:51;;;;;;;5.30;4.80;;;;;;;27.90;27.52;97785.88;5061465;28;20205;-77
2023/06/18 10:31:20;;;;;;;5.35;4.88;;;;;;;28.35;27.85;97792.13;5062621;28;20201;-77
2023/06/18 10:33:48;;;;;;;5.75;5.18;;;;;;;28.50;26.33;97798.91;5062136;28;20213;-77
2023/06/18 10:36:16;;;;;;;5.80;5.20;;;;;;;28.44;27.70;97787.38;5064216;28;20227;-77
2023/06/18 10:38:44;;;;;;;6.32;4.47;;;;;;;28.07;25.69;97790.38;5065019;28;20568;-77
2023/06/18 10:41:14;;;;;;;5.20;4.72;;;;;;;27.91;26.59;97787.50;5065714;28;20201;-77
2023/06/18 10:43:42;;;;;;;5.03;4.63;;;;;;;27.78;25.99;97783.09;5061072;28;20575;-77
2023/06/18 10:46:09;;;;;;;5.22;4.82;;;;;;;27.93;27.31;97789.84;5056260;28;20704;-77
2023/06/18 10:48:36;;;;;;;5.22;4.72;;;;;;;28.27;26.06;97781.28;5056565;28;20209;-78
2023/06/18 10:51:13;;;;;;;5.32;4.82;;;;;;;28.43;26.58;97782.28;5056664;28;20205;-77
2023/06/18 10:53:39;;;;;;;4.97;4.57;;;;;;;28.57;26.60;97778.03;5056315;28;20262;-77
2023/06/18 10:56:06;;;;;;;5.20;4.45;;;;;;;28.62;26.32;97777.03;5055866;28;20656;-77
2023/06/18 10:58:34;;;;;;;6.40;4.53;;;;;;;28.48;24.96;97777.34;5056097;28;20656;-78
2023/06/18 11:01:01;;;;;;;5.10;4.60;;;;;;;28.16;25.86;97775.47;5056425;28;20216;-77
2023/06/18 11:03:39;;;;;;;5.00;4.30;;;;;;;28.21;26.08;97769.78;5056411;28;20212;-77
2023/06/18 11:06:10;;;;;;;5.13;4.63;;;;;;;28.37;25.44;97770.72;5076231;28;20231;-77
2023/06/18 11:08:37;;;;;;;5.35;4.53;;;;;;;28.37;24.61;97772.66;5077280;28;20211;-77
2023/06/18 11:11:13;;;;;;;5.25;4.75;;;;;;;28.08;24.40;97757.22;5076094;28;20585;-77
2023/06/18 11:13:41;;;;;;;6.10;4.60;;;;;;;28.13;25.54;97751.56;5076314;28;20224;-77
2023/06/18 11:16:09;;;;;;;5.13;4.72;;;;;;;28.16;26.42;97747.34;5076139;28;20259;-77
2023/06/18 11:18:35;;;;;;;5.05;4.65;;;;;;;28.51;25.49;97749.34;5075587;28;20204;-77
2023/06/18 11:21:04;;;;;;;4.13;3.83;;;;;;;28.66;24.78;97745.91;5076069;28;20204;-77
2023/06/18 11:23:32;;;;;;;4.70;4.30;;;;;;;28.53;24.96;97749.78;5075566;28;20220;-77
2023/06/18 11:25:59;;;;;;;4.78;4.38;;;;;;;28.58;24.80;97746.03;5075659;28;20307;-77
2023/06/18 11:28:26;;;;;;;4.43;4.13;;;;;;;28.55;24.17;97747.50;5076343;28;20203;-78
2023/06/18 11:30:58;;;;;;;4.32;3.92;;;;;;;28.23;25.36;97742.09;5075979;28;20258;-77
2023/06/18 11:33:29;;;;;;;5.70;4.70;;;;;;;28.75;25.36;97743.84;5076632;28;20265;-77
2023/06/18 11:36:07;;;;;;;6.00;4.38;;;;;;;28.64;25.59;97740.00;5075810;28;20243;-77